North Central West Virginia Airport
KCKB : rendu visible

Aérodrome :











RETROUVEZ-NOUS SUR...

 
LOGIN :

S'inscrire | Disclaimer

   EN    FR    IT 

 









Légende :    VFR   VFR Marginal   IFR   IFR Intensif   IFR Très Intensif
Visi : 
Plafond : 
>= 8 km
>= 3000ft
5 à 8 km
1000 à 3000 ft
1500m à 5 km
500 à 1000 ft
800 à 1500m
200 à 500 ft
< 800m
< 200 ft
Symboles :   Orages  Brouillard  Fortes neiges  Fortes précipitations  Vent > 20 kt






- Altitude de l'aérodrome : 1217 ft
- Code IATA : CKB


KCKB - North Central West Virginia

DERNIER METAR :
  • 031253Z 24008KT 10SM CLR 24/15 A2989 RMK AO2 SLP107 T02440150

METARs EXPIRÉS :
  • 031153Z 23007KT 10SM CLR 24/15 A2991 RMK AO2 SLP112 T02390150 10239 20222 58006
  • 031053Z AUTO 24008G15KT 10SM BKN075 23/15 A2993 RMK AO2 SLP118 T02330150

TAF KCKB
Valide du 03 à 12h jusqu'au 04 à 12h UTC


031120Z 0312/0412 22008G14KT P6SM BKN080 OVC100
FM031500 23011G22KT P6SM SCT100
FM040000 22007KT P6SM VCTS BKN050CB
FIR KZOB / Amérique du Nord



MET'MAP, la Météo Aéronautique d'un coup d'oeil ! - Copyright ORBIFLY Décembre 2007 - Disclaimer

ORBIFLY MET'MAP TEAM :

Programmation & Développement : Alexandra Zaïnal
Sur une idée originale de : Baudouin d'Aumeries
Assistance à la programmation : Marc-Olivier Méhu
Soutien technique & logistique : Manuel Goepfert

Contact : metmap@orbifly.com




SOURCES & CREDITS :

   NOAA       Earth
Advisory